Schedule Details

Flight Number: SQS89
Departure: Sentani International (WAJJ) at 09:00
Arrival: Tanah Merah (WAKT) at 10:30

$depweather=Schedulesdata::GetWeather($schedule->depicao); $arrweather=Schedulesdata::GetWeather($schedule->arricao); $depsun=" Sunrise: ".date_sunrise(time(),SUNFUNCS_RET_STRING,$schedule->deplat,$schedule->deplng,90,0)." Sunset: ".date_sunset(time(),SUNFUNCS_RET_STRING,$schedule->deplat,$schedule->deplng,90,0)." (UTC)"; $arrsun=" Sunrise: ".date_sunrise(time(),SUNFUNCS_RET_STRING,$schedule->arrlat,$schedule->arrlng,90,0)." Sunset: ".date_sunset(time(),SUNFUNCS_RET_STRING,$schedule->arrlat,$schedule->arrlng,90,0)." (UTC)"; Weather Information
Current METAR information for WAJJ : WAJJ 181100Z 11005KT 9000 FEW011CB SCT012 27/24 Q1010 NOSIG
Current METAR information for WAKT :

Schedule Frequency




TAF:

Route Map